1A5

Macon County Airport

Franklin, North Carolina, USA
METAR K1A5 260315Z AUTO 33005KT 10SM OVC041 13/09 A2992 RMK AO2 T01260088
Observed Flight Rules
Apr-26 @ 03:15 UTC (19 minutes ago) Visual Flight Rules
Wind Visibility Clouds
330° at 5 knots 10 miles
  • Overcast at 4,100' AGL
Temperatures Readings
Current 13°C / 55°F
Dewpoint 9°C / 48°F
Humidity 77%
Altimeter 29.92" Hg
Pressure 1013 hPa
Elevation 616
METAR K1A5 260315Z AUTO 33005KT 10SM OVC041 13/09 A2992 RMK AO2 T01260088
Observed Flight Rules
Apr-26 @ 03:15 UTC
(19 minutes ago)
VFR
Wind Visibility
330° at 5 knots 10 miles
Clouds
  • Overcast at 4,100' AGL
Temperature Dewpoint
13°C / 55°F 9°C / 48°F
Humidity Altimeter Pressure
77% 29.92" Hg 1013 hPa